Time;durP1;ratioP1;P1;durP2;ratioP2;P2;SDS_P1;SDS_P2;PMS_P1;PMS_P2;Temp;Humidity;BMP_temperature;BMP_pressure;BME280_temperature;BME280_humidity;BME280_pressure;Samples;Min_cycle;Max_cycle;Signal;HPM_P1;HPM_P2
2022/03/26 00:00:19;;;;;;;3.20;2.90;;;;;;;;;;6216310;23;20187;-78
2022/03/26 00:02:49;;;;;;;0.70;0.70;;;;;;;;;;6190067;23;20181;-78
2022/03/26 00:05:17;;;;;;;6.43;5.87;;;;;;;;;;6189768;23;20291;-78
2022/03/26 00:07:46;;;;;;;3.10;3.00;;;;;;;;;;6216201;23;20536;-78
2022/03/26 00:10:14;;;;;;;4.10;3.90;;;;;;;;;;6190145;23;20175;-78
2022/03/26 00:12:43;;;;;;;2.20;2.10;;;;;;;;;;6189732;23;20176;-78
2022/03/26 00:15:12;;;;;;;5.00;4.63;;;;;;;;;;6190063;23;20176;-78
2022/03/26 00:17:41;;;;;;;12.33;4.83;;;;;;;;;;6216130;23;20169;-78
2022/03/26 00:20:12;;;;;;;7.13;4.20;;;;;;;;;;6189905;23;20177;-78
2022/03/26 00:22:40;;;;;;;6.13;3.40;;;;;;;;;;6216511;23;20242;-78
2022/03/26 00:25:10;;;;;;;6.63;5.70;;;;;;;;;;6189756;23;20185;-79
2022/03/26 00:27:38;;;;;;;3.30;3.20;;;;;;;;;;6189717;23;20180;-78
2022/03/26 00:30:07;;;;;;;1.63;1.63;;;;;;;;;;6216498;23;20175;-78
2022/03/26 00:32:36;;;;;;;4.70;4.50;;;;;;;;;;6189617;23;20357;-78
2022/03/26 00:35:06;;;;;;;3.17;3.03;;;;;;;;;;6189587;23;20171;-78
2022/03/26 00:37:36;;;;;;;2.30;2.20;;;;;;;;;;6216253;23;20199;-78
2022/03/26 00:40:05;;;;;;;3.10;3.00;;;;;;;;;;6189747;23;20173;-78
2022/03/26 00:42:34;;;;;;;0.80;0.80;;;;;;;;;;6189874;23;20184;-78
2022/03/26 00:45:02;;;;;;;4.60;4.20;;;;;;;;;;6189928;23;20178;-79
2022/03/26 00:47:31;;;;;;;24.50;6.43;;;;;;;;;;6215741;23;20202;-79
2022/03/26 00:49:59;;;;;;;9.20;5.57;;;;;;;;;;6189273;23;20217;-78
2022/03/26 00:52:28;;;;;;;14.47;8.60;;;;;;;;;;6215823;23;20171;-78
2022/03/26 00:54:57;;;;;;;2.17;1.80;;;;;;;;;;6190156;23;20180;-78
2022/03/26 00:57:26;;;;;;;14.17;3.90;;;;;;;;;;6189881;23;20177;-78
2022/03/26 00:59:54;;;;;;;2.13;2.03;;;;;;;;;;6215653;23;20172;-78
2022/03/26 01:02:23;;;;;;;1.53;1.43;;;;;;;;;;6189299;23;20179;-78
2022/03/26 01:04:51;;;;;;;2.13;2.03;;;;;;;;;;6189524;23;20226;-78
2022/03/26 01:07:19;;;;;;;0.97;0.97;;;;;;;;;;6215579;23;20198;-78
2022/03/26 01:09:48;;;;;;;1.40;1.33;;;;;;;;;;6189872;23;20171;-78
2022/03/26 01:12:17;;;;;;;4.20;4.00;;;;;;;;;;6189468;23;20181;-78
2022/03/26 01:14:46;;;;;;;3.07;2.97;;;;;;;;;;6216014;23;20233;-78
2022/03/26 01:17:14;;;;;;;2.40;2.30;;;;;;;;;;6215485;23;20163;-78
2022/03/26 01:19:43;;;;;;;2.27;2.17;;;;;;;;;;6215879;23;20182;-78
2022/03/26 01:22:12;;;;;;;3.17;2.97;;;;;;;;;;6215994;23;20181;-78
2022/03/26 01:24:40;;;;;;;3.13;2.83;;;;;;;;;;6215276;23;20186;-78
2022/03/26 01:27:09;;;;;;;4.80;2.40;;;;;;;;;;6189658;23;20189;-78
2022/03/26 01:29:40;;;;;;;9.30;7.93;;;;;;;;;;6215805;23;20176;-78
2022/03/26 01:32:10;;;;;;;10.70;9.63;;;;;;;;;;6215612;23;20178;-78
2022/03/26 01:34:38;;;;;;;13.40;10.13;;;;;;;;;;6215630;23;20173;-78
2022/03/26 01:37:07;;;;;;;11.83;10.63;;;;;;;;;;6189382;23;20198;-78
2022/03/26 01:39:35;;;;;;;18.53;13.87;;;;;;;;;;6215728;23;20175;-78
2022/03/26 01:42:05;;;;;;;15.83;10.87;;;;;;;;;;6214031;23;20176;-78
2022/03/26 01:44:33;;;;;;;7.90;6.37;;;;;;;;;;6188821;23;20182;-79
2022/03/26 01:47:03;;;;;;;8.00;6.57;;;;;;;;;;6188575;23;20200;-78
2022/03/26 01:49:31;;;;;;;15.63;11.20;;;;;;;;;;6188806;23;20212;-79
2022/03/26 01:52:01;;;;;;;14.73;7.47;;;;;;;;;;6188994;23;20176;-78
2022/03/26 01:54:29;;;;;;;14.10;8.63;;;;;;;;;;6189268;23;20226;-78
2022/03/26 01:56:58;;;;;;;4.80;4.30;;;;;;;;;;6188758;23;20225;-78
2022/03/26 01:59:27;;;;;;;9.73;7.67;;;;;;;;;;6189262;23;20182;-78
2022/03/26 02:01:55;;;;;;;16.80;10.87;;;;;;;;;;6188674;23;20182;-78
2022/03/26 02:04:26;;;;;;;8.77;7.67;;;;;;;;;;6215438;23;20198;-78
2022/03/26 02:06:55;;;;;;;11.80;8.23;;;;;;;;;;6188671;23;20193;-78
2022/03/26 02:09:23;;;;;;;11.40;8.33;;;;;;;;;;6189010;23;20174;-78
2022/03/26 02:11:52;;;;;;;11.47;10.47;;;;;;;;;;6215051;23;20171;-79
2022/03/26 02:14:20;;;;;;;5.53;4.67;;;;;;;;;;6189175;23;20180;-78
2022/03/26 02:16:48;;;;;;;10.53;5.53;;;;;;;;;;6188634;23;20183;-78
2022/03/26 02:19:18;;;;;;;11.90;8.70;;;;;;;;;;6215044;23;20177;-78
2022/03/26 02:21:49;;;;;;;7.30;6.03;;;;;;;;;;6215002;23;20182;-78
2022/03/26 02:24:17;;;;;;;14.13;9.20;;;;;;;;;;6188602;23;20179;-78
2022/03/26 02:26:46;;;;;;;13.00;10.23;;;;;;;;;;6188963;23;20194;-78
2022/03/26 02:29:15;;;;;;;6.17;4.73;;;;;;;;;;6214013;23;20180;-79
2022/03/26 02:31:43;;;;;;;9.13;6.50;;;;;;;;;;6188724;23;20187;-78
2022/03/26 02:34:12;;;;;;;7.67;6.23;;;;;;;;;;6215319;23;20173;-78
2022/03/26 02:36:40;;;;;;;11.77;5.60;;;;;;;;;;6188330;23;20181;-79
2022/03/26 02:39:10;;;;;;;6.17;5.57;;;;;;;;;;6215150;23;20182;-78
2022/03/26 02:41:38;;;;;;;2.50;2.40;;;;;;;;;;6188311;23;20175;-78
2022/03/26 02:44:07;;;;;;;0.80;0.80;;;;;;;;;;6214941;23;20186;-78
2022/03/26 02:46:38;;;;;;;1.00;1.00;;;;;;;;;;6188308;23;20195;-78
2022/03/26 02:49:06;;;;;;;1.93;1.93;;;;;;;;;;6214840;23;20214;-79
2022/03/26 02:51:35;;;;;;;2.07;2.07;;;;;;;;;;6188384;23;20235;-79
2022/03/26 02:54:03;;;;;;;1.13;1.13;;;;;;;;;;6189018;23;20182;-78
2022/03/26 02:56:33;;;;;;;5.20;4.20;;;;;;;;;;6188736;23;20187;-78
2022/03/26 02:59:01;;;;;;;7.03;6.27;;;;;;;;;;6189055;23;20183;-78
2022/03/26 03:01:30;;;;;;;4.70;4.50;;;;;;;;;;6188239;23;20181;-79
2022/03/26 03:03:59;;;;;;;1.27;1.27;;;;;;;;;;6188374;23;20270;-79
2022/03/26 03:06:27;;;;;;;15.03;12.83;;;;;;;;;;6188424;23;20174;-79
2022/03/26 03:08:55;;;;;;;4.33;4.07;;;;;;;;;;6188735;23;20175;-79
2022/03/26 03:11:24;;;;;;;1.23;1.23;;;;;;;;;;6188254;23;20172;-79
2022/03/26 03:13:54;;;;;;;7.20;6.47;;;;;;;;;;6188254;23;20180;-79
2022/03/26 03:16:22;;;;;;;8.07;5.50;;;;;;;;;;6188310;23;20190;-79
2022/03/26 03:18:51;;;;;;;9.10;4.53;;;;;;;;;;6188376;23;20200;-79
2022/03/26 03:21:19;;;;;;;5.77;5.37;;;;;;;;;;6188627;23;20211;-79
2022/03/26 03:23:48;;;;;;;7.00;4.57;;;;;;;;;;6188746;23;20205;-79
2022/03/26 03:26:16;;;;;;;9.93;4.50;;;;;;;;;;6190541;23;20174;-79
2022/03/26 03:28:45;;;;;;;6.17;4.37;;;;;;;;;;6216806;23;20194;-79
2022/03/26 03:31:14;;;;;;;5.20;4.80;;;;;;;;;;6190319;23;20179;-79
2022/03/26 03:33:43;;;;;;;5.20;3.13;;;;;;;;;;6216612;23;20180;-79
2022/03/26 03:36:11;;;;;;;3.30;3.10;;;;;;;;;;6216748;23;20167;-79
2022/03/26 03:38:40;;;;;;;3.83;3.40;;;;;;;;;;6189968;23;20175;-79
2022/03/26 03:41:09;;;;;;;0.93;0.93;;;;;;;;;;6190328;23;20179;-79
2022/03/26 03:43:37;;;;;;;7.23;6.43;;;;;;;;;;6190396;23;20179;-79
2022/03/26 03:46:06;;;;;;;7.07;6.30;;;;;;;;;;6216075;23;20170;-79
2022/03/26 03:48:36;;;;;;;3.20;2.93;;;;;;;;;;6216164;23;20216;-79
2022/03/26 03:51:04;;;;;;;1.73;1.73;;;;;;;;;;6189933;23;20174;-79
2022/03/26 03:53:32;;;;;;;3.63;3.50;;;;;;;;;;6216314;23;20174;-78
2022/03/26 03:56:01;;;;;;;2.10;1.67;;;;;;;;;;6189851;23;20229;-78
2022/03/26 03:58:29;;;;;;;4.53;3.33;;;;;;;;;;6216125;23;20179;-79
2022/03/26 04:01:02;;;;;;;5.83;5.43;;;;;;;;;;6216154;23;20199;-80
2022/03/26 04:03:33;;;;;;;1.53;1.43;;;;;;;;;;6216153;23;20228;-78
2022/03/26 04:06:05;;;;;;;5.07;4.83;;;;;;;;;;6189798;23;20274;-79
2022/03/26 04:08:33;;;;;;;13.33;11.80;;;;;;;;;;6216138;23;20195;-79
2022/03/26 04:11:02;;;;;;;4.70;4.30;;;;;;;;;;6214967;23;20179;-79
2022/03/26 04:13:30;;;;;;;6.83;6.33;;;;;;;;;;6189824;23;20229;-79
2022/03/26 04:15:59;;;;;;;13.33;9.20;;;;;;;;;;6216447;23;20172;-79
2022/03/26 04:18:27;;;;;;;5.80;5.40;;;;;;;;;;6189875;23;20264;-79
2022/03/26 04:20:56;;;;;;;8.50;4.10;;;;;;;;;;6189558;23;20179;-79
2022/03/26 04:23:26;;;;;;;3.63;3.50;;;;;;;;;;6189445;23;20186;-80
2022/03/26 04:25:54;;;;;;;0.70;0.70;;;;;;;;;;6216131;23;20177;-79
2022/03/26 04:28:23;;;;;;;0.80;0.80;;;;;;;;;;6215665;23;20192;-79
2022/03/26 04:30:51;;;;;;;1.00;1.00;;;;;;;;;;6216127;23;20174;-79
2022/03/26 04:33:20;;;;;;;10.67;9.73;;;;;;;;;;6189503;23;20201;-79
2022/03/26 04:35:48;;;;;;;6.40;5.50;;;;;;;;;;6189411;23;20198;-79
2022/03/26 04:38:17;;;;;;;13.63;7.83;;;;;;;;;;6215735;23;20163;-79
2022/03/26 04:40:47;;;;;;;16.27;10.60;;;;;;;;;;6215930;23;20263;-79
2022/03/26 04:43:16;;;;;;;1.37;1.37;;;;;;;;;;6189766;23;20185;-79
2022/03/26 04:45:44;;;;;;;8.17;7.67;;;;;;;;;;6214985;23;20178;-79
2022/03/26 04:48:13;;;;;;;6.67;6.17;;;;;;;;;;6215687;23;20192;-78
2022/03/26 04:50:42;;;;;;;22.53;8.43;;;;;;;;;;6189579;23;20179;-79
2022/03/26 04:53:10;;;;;;;3.43;3.33;;;;;;;;;;6189331;23;20180;-79
2022/03/26 04:55:38;;;;;;;0.70;0.70;;;;;;;;;;6189553;23;20179;-79
2022/03/26 04:58:09;;;;;;;10.27;6.67;;;;;;;;;;6189583;23;20175;-79
2022/03/26 05:00:37;;;;;;;26.13;5.17;;;;;;;;;;6189796;23;20174;-79
2022/03/26 05:03:06;;;;;;;10.17;5.30;;;;;;;;;;6215358;23;20196;-79
2022/03/26 05:05:37;;;;;;;1.00;1.00;;;;;;;;;;6189739;23;20179;-79
2022/03/26 05:08:05;;;;;;;4.17;3.77;;;;;;;;;;6189356;23;20210;-78
2022/03/26 05:10:34;;;;;;;1.77;1.77;;;;;;;;;;6189266;23;20175;-79
2022/03/26 05:13:02;;;;;;;6.50;3.80;;;;;;;;;;6215815;23;20171;-79
2022/03/26 05:15:32;;;;;;;3.33;3.13;;;;;;;;;;6189121;23;20228;-79
2022/03/26 05:18:00;;;;;;;2.80;2.70;;;;;;;;;;6189397;23;20181;-78
2022/03/26 05:20:29;;;;;;;1.03;1.03;;;;;;;;;;6188994;23;20175;-79
2022/03/26 05:22:57;;;;;;;5.80;4.87;;;;;;;;;;6189331;23;20185;-79
2022/03/26 05:25:26;;;;;;;9.33;8.57;;;;;;;;;;6189443;23;20179;-79
2022/03/26 05:27:54;;;;;;;1.90;1.60;;;;;;;;;;6215255;23;20191;-79
2022/03/26 05:30:24;;;;;;;2.13;2.03;;;;;;;;;;6189237;23;20182;-79
2022/03/26 05:32:54;;;;;;;1.87;1.83;;;;;;;;;;6216002;23;20172;-79
2022/03/26 05:35:22;;;;;;;3.10;3.00;;;;;;;;;;6215683;23;20182;-79
2022/03/26 05:37:51;;;;;;;5.90;5.43;;;;;;;;;;6215742;23;20180;-79
2022/03/26 05:40:20;;;;;;;4.70;4.50;;;;;;;;;;6188754;23;20179;-79
2022/03/26 05:42:49;;;;;;;4.63;4.20;;;;;;;;;;6189304;23;20201;-79
2022/03/26 05:45:18;;;;;;;1.70;1.70;;;;;;;;;;6215294;23;20172;-79
2022/03/26 05:47:49;;;;;;;3.17;3.07;;;;;;;;;;6188802;23;20183;-79
2022/03/26 05:50:19;;;;;;;6.93;4.90;;;;;;;;;;6188633;23;20269;-79
2022/03/26 05:52:48;;;;;;;0.80;0.80;;;;;;;;;;6215428;23;20208;-80
2022/03/26 05:55:17;;;;;;;3.33;3.03;;;;;;;;;;6188578;23;20171;-78
2022/03/26 05:57:45;;;;;;;3.60;3.47;;;;;;;;;;6189525;23;20175;-78
2022/03/26 06:00:15;;;;;;;3.13;2.90;;;;;;;;;;6188516;23;20207;-79
2022/03/26 06:02:44;;;;;;;2.20;2.20;;;;;;;;;;6188928;23;20170;-78
2022/03/26 06:05:12;;;;;;;5.00;2.60;;;;;;;;;;6188844;23;20196;-78
2022/03/26 06:07:42;;;;;;;3.17;3.07;;;;;;;;;;6215368;23;20167;-78
2022/03/26 06:10:10;;;;;;;4.17;3.10;;;;;;;;;;6188390;23;20201;-78
2022/03/26 06:12:44;;;;;;;3.07;2.83;;;;;;;;;;6215237;23;20199;-78
2022/03/26 06:15:12;;;;;;;13.73;10.70;;;;;;;;;;6188494;23;20176;-78
2022/03/26 06:18:00;;;;;;;1.13;1.13;;;;;;;;;;6188482;23;20203;-78
2022/03/26 06:20:29;;;;;;;3.50;3.37;;;;;;;;;;6188645;23;20178;-79
2022/03/26 06:22:59;;;;;;;3.10;3.00;;;;;;;;;;6188613;23;20230;-78
2022/03/26 06:25:31;;;;;;;6.60;5.03;;;;;;;;;;6215373;23;20183;-78
2022/03/26 06:28:00;;;;;;;8.43;8.03;;;;;;;;;;6188844;23;20176;-78
2022/03/26 06:30:28;;;;;;;2.03;2.03;;;;;;;;;;6215270;23;20212;-78
2022/03/26 06:32:57;;;;;;;5.90;5.43;;;;;;;;;;6215154;23;20176;-78
2022/03/26 06:35:25;;;;;;;8.67;8.27;;;;;;;;;;6215002;23;20172;-78
2022/03/26 06:37:53;;;;;;;3.87;3.13;;;;;;;;;;6188479;23;20176;-78
2022/03/26 06:40:24;;;;;;;3.47;3.17;;;;;;;;;;6215172;23;20172;-78
2022/03/26 06:42:52;;;;;;;2.20;2.20;;;;;;;;;;6188538;23;20181;-78
2022/03/26 06:45:21;;;;;;;3.27;3.17;;;;;;;;;;6214910;23;20173;-78
2022/03/26 06:47:49;;;;;;;6.73;5.83;;;;;;;;;;6188535;23;20185;-78
2022/03/26 06:50:18;;;;;;;11.40;9.87;;;;;;;;;;6188109;23;20203;-78
2022/03/26 06:52:46;;;;;;;5.43;4.03;;;;;;;;;;6188843;23;20184;-78
2022/03/26 06:55:14;;;;;;;18.33;9.40;;;;;;;;;;6188631;23;20184;-78
2022/03/26 06:57:45;;;;;;;8.87;8.33;;;;;;;;;;6188614;23;20177;-78
2022/03/26 07:00:15;;;;;;;17.23;12.20;;;;;;;;;;6190315;23;20172;-79
2022/03/26 07:02:44;;;;;;;39.80;28.87;;;;;;;;;;6216806;23;20178;-78
2022/03/26 07:05:13;;;;;;;21.50;16.77;;;;;;;;;;6215268;23;20295;-78
2022/03/26 07:07:41;;;;;;;6.73;5.83;;;;;;;;;;6190538;23;20173;-78
2022/03/26 07:10:10;;;;;;;32.90;23.03;;;;;;;;;;6216535;23;20193;-78
2022/03/26 07:12:39;;;;;;;21.60;16.90;;;;;;;;;;6215420;23;20192;-78
2022/03/26 07:15:09;;;;;;;29.77;20.27;;;;;;;;;;6216621;23;20180;-78
2022/03/26 07:17:39;;;;;;;39.10;23.97;;;;;;;;;;6215318;23;20268;-78
2022/03/26 07:20:09;;;;;;;18.80;13.63;;;;;;;;;;6216724;23;20168;-79
2022/03/26 07:22:37;;;;;;;24.97;19.53;;;;;;;;;;6216940;23;20181;-79
2022/03/26 07:25:06;;;;;;;17.23;10.93;;;;;;;;;;6188697;23;20174;-80
2022/03/26 07:27:35;;;;;;;29.80;18.43;;;;;;;;;;6189711;23;20178;-77
2022/03/26 07:30:04;;;;;;;19.77;16.20;;;;;;;;;;6216098;23;20190;-79
2022/03/26 07:32:35;;;;;;;37.87;26.07;;;;;;;;;;6214991;23;20182;-79
2022/03/26 07:35:03;;;;;;;38.53;25.27;;;;;;;;;;6189915;23;20178;-79
2022/03/26 07:37:32;;;;;;;21.07;17.03;;;;;;;;;;6216766;23;20173;-79
2022/03/26 07:40:00;;;;;;;25.00;14.73;;;;;;;;;;6215365;23;20184;-79
2022/03/26 07:42:29;;;;;;;26.03;18.80;;;;;;;;;;6190501;23;20200;-79
2022/03/26 07:44:58;;;;;;;34.97;22.50;;;;;;;;;;6216235;23;20181;-79
2022/03/26 07:47:26;;;;;;;52.83;20.47;;;;;;;;;;6190314;23;20181;-79
2022/03/26 07:49:57;;;;;;;12.50;8.90;;;;;;;;;;6215985;23;20209;-81
2022/03/26 07:52:25;;;;;;;27.03;15.13;;;;;;;;;;6189849;23;20268;-79
2022/03/26 07:54:54;;;;;;;37.37;23.40;;;;;;;;;;6190245;23;20178;-79
2022/03/26 07:57:22;;;;;;;6.87;6.17;;;;;;;;;;6190061;23;20204;-80
2022/03/26 07:59:50;;;;;;;12.00;8.80;;;;;;;;;;6190262;23;20217;-79
2022/03/26 08:02:19;;;;;;;8.17;7.27;;;;;;;;;;6216472;23;20174;-79
2022/03/26 08:04:47;;;;;;;4.20;3.97;;;;;;;;;;6190131;23;20224;-79
2022/03/26 08:07:17;;;;;;;9.63;8.97;;;;;;;;;;6190147;23;20178;-79
2022/03/26 08:09:46;;;;;;;2.63;2.47;;;;;;;;;;6189734;23;20194;-79
2022/03/26 08:12:14;;;;;;;1.80;1.70;;;;;;;;;;6189871;23;20185;-79
2022/03/26 08:14:43;;;;;;;12.67;7.10;;;;;;;;;;6190105;23;20185;-79
2022/03/26 08:17:11;;;;;;;16.03;10.87;;;;;;;;;;6189935;23;20185;-79
2022/03/26 08:19:41;;;;;;;13.80;11.10;;;;;;;;;;6189782;23;20170;-79
2022/03/26 08:22:09;;;;;;;13.27;7.23;;;;;;;;;;6216202;23;20234;-79
2022/03/26 08:24:39;;;;;;;19.20;14.13;;;;;;;;;;6216004;23;20170;-80
2022/03/26 08:27:08;;;;;;;20.93;11.57;;;;;;;;;;6189922;23;20186;-79
2022/03/26 08:29:36;;;;;;;23.13;15.30;;;;;;;;;;6214906;23;20205;-79
2022/03/26 08:32:07;;;;;;;31.70;15.83;;;;;;;;;;6189690;23;20174;-79
2022/03/26 08:34:35;;;;;;;39.73;22.20;;;;;;;;;;6214994;23;20190;-80
2022/03/26 08:37:04;;;;;;;20.87;12.07;;;;;;;;;;6189684;23;20181;-79
2022/03/26 08:39:32;;;;;;;7.63;6.77;;;;;;;;;;6214681;23;20247;-79
2022/03/26 08:42:02;;;;;;;10.87;9.80;;;;;;;;;;6189176;23;20186;-80
2022/03/26 08:44:31;;;;;;;27.10;15.93;;;;;;;;;;6215881;23;20175;-79
2022/03/26 08:47:02;;;;;;;5.13;4.87;;;;;;;;;;6214779;23;20259;-80
2022/03/26 08:49:31;;;;;;;13.17;10.10;;;;;;;;;;6215985;23;20203;-80
2022/03/26 08:51:59;;;;;;;6.13;4.67;;;;;;;;;;6216061;23;20174;-79
2022/03/26 08:54:27;;;;;;;9.43;8.57;;;;;;;;;;6189505;23;20186;-80
2022/03/26 08:56:56;;;;;;;18.80;10.47;;;;;;;;;;6189513;23;20179;-79
2022/03/26 08:59:26;;;;;;;17.70;9.73;;;;;;;;;;6215749;23;20178;-80
2022/03/26 09:01:54;;;;;;;19.87;14.00;;;;;;;;;;6189823;23;20187;-80
2022/03/26 09:04:23;;;;;;;2.87;2.40;;;;;;;;;;6189036;23;20206;-80
2022/03/26 09:06:52;;;;;;;6.37;5.77;;;;;;;;;;6189465;23;20180;-79
2022/03/26 09:09:20;;;;;;;6.20;5.60;;;;;;;;;;6189205;23;20229;-80
2022/03/26 09:11:49;;;;;;;30.33;18.00;;;;;;;;;;6189277;23;20202;-80
2022/03/26 09:14:18;;;;;;;16.13;11.57;;;;;;;;;;6189318;23;20179;-79
2022/03/26 09:16:48;;;;;;;26.27;15.50;;;;;;;;;;6216034;23;20185;-80
2022/03/26 09:19:16;;;;;;;10.03;8.53;;;;;;;;;;6214153;23;20176;-80
2022/03/26 09:21:46;;;;;;;36.60;21.93;;;;;;;;;;6188515;23;20176;-80
2022/03/26 09:24:15;;;;;;;39.07;21.27;;;;;;;;;;6189143;23;20263;-80
2022/03/26 09:26:44;;;;;;;13.23;9.03;;;;;;;;;;6214504;23;20259;-80
2022/03/26 09:29:12;;;;;;;46.97;26.57;;;;;;;;;;6215572;23;20177;-79
2022/03/26 09:31:41;;;;;;;13.73;8.73;;;;;;;;;;6215267;23;20197;-80
2022/03/26 09:34:10;;;;;;;17.87;8.57;;;;;;;;;;6189426;23;20181;-80
2022/03/26 09:36:39;;;;;;;14.07;9.27;;;;;;;;;;6189107;23;20191;-80
2022/03/26 09:39:07;;;;;;;6.63;6.03;;;;;;;;;;6215393;23;20246;-80
2022/03/26 09:41:36;;;;;;;6.00;4.50;;;;;;;;;;6188985;23;20178;-80
2022/03/26 09:44:05;;;;;;;20.53;14.57;;;;;;;;;;6189240;23;20183;-80
2022/03/26 09:46:34;;;;;;;12.70;8.07;;;;;;;;;;6188839;23;20181;-80
2022/03/26 09:49:03;;;;;;;25.33;15.87;;;;;;;;;;6188172;23;20185;-80
2022/03/26 09:51:34;;;;;;;6.70;6.00;;;;;;;;;;6188940;23;20197;-80
2022/03/26 09:54:02;;;;;;;26.50;14.70;;;;;;;;;;6188799;23;20178;-80
2022/03/26 09:56:31;;;;;;;16.67;12.57;;;;;;;;;;6215629;23;20175;-80
2022/03/26 09:58:59;;;;;;;19.93;11.70;;;;;;;;;;6215611;23;20177;-81
2022/03/26 10:01:28;;;;;;;28.47;12.90;;;;;;;;;;6215172;23;20203;-80
2022/03/26 10:04:10;;;;;;;42.87;25.20;;;;;;;;;;6213417;23;20205;-80
2022/03/26 10:06:47;;;;;;;30.53;16.90;;;;;;;;;;6213823;23;20173;-80
2022/03/26 10:09:26;;;;;;;29.37;6.27;;;;;;;;;;6215093;23;20174;-81
2022/03/26 10:12:01;;;;;;;26.50;15.30;;;;;;;;;;6188577;23;20208;-80
2022/03/26 10:14:43;;;;;;;2.20;2.10;;;;;;;;;;6215095;23;20169;-80
2022/03/26 10:17:13;;;;;;;24.93;13.70;;;;;;;;;;6189114;23;20170;-80
2022/03/26 10:19:45;;;;;;;12.00;9.80;;;;;;;;;;6189045;23;20255;-80
2022/03/26 10:22:23;;;;;;;13.70;7.50;;;;;;;;;;6215091;23;20178;-80
2022/03/26 10:24:52;;;;;;;26.47;14.33;;;;;;;;;;6189089;23;20184;-80
2022/03/26 10:27:20;;;;;;;14.43;6.60;;;;;;;;;;6215327;23;20227;-80
2022/03/26 10:29:50;;;;;;;36.60;19.67;;;;;;;;;;6188660;23;20242;-80
2022/03/26 10:32:41;;;;;;;31.70;14.43;;;;;;;;;;6188450;23;20193;-80
2022/03/26 10:35:11;;;;;;;12.17;11.20;;;;;;;;;;6188886;23;20181;-80
2022/03/26 10:37:45;;;;;;;7.90;5.93;;;;;;;;;;6213540;23;20197;-80
2022/03/26 10:40:17;;;;;;;20.33;12.37;;;;;;;;;;6188935;23;20248;-80
2022/03/26 10:42:46;;;;;;;31.60;18.37;;;;;;;;;;6213899;23;20189;-81
2022/03/26 10:45:15;;;;;;;20.40;12.77;;;;;;;;;;6188999;23;20179;-80
2022/03/26 10:47:43;;;;;;;12.97;6.73;;;;;;;;;;6213963;23;20178;-80
2022/03/26 10:50:14;;;;;;;11.93;9.93;;;;;;;;;;6188543;23;20207;-80
2022/03/26 10:52:44;;;;;;;32.37;10.43;;;;;;;;;;6188473;23;20274;-80
2022/03/26 10:55:14;;;;;;;35.20;18.53;;;;;;;;;;6188137;23;20178;-80
2022/03/26 10:57:43;;;;;;;13.93;8.87;;;;;;;;;;6215547;23;20180;-80
2022/03/26 11:00:12;;;;;;;7.80;7.10;;;;;;;;;;6188829;23;20188;-80
2022/03/26 11:02:42;;;;;;;10.90;7.97;;;;;;;;;;6188441;23;20198;-80
2022/03/26 11:05:11;;;;;;;16.87;9.27;;;;;;;;;;6188927;23;20191;-80
2022/03/26 11:07:41;;;;;;;28.33;11.70;;;;;;;;;;6214849;23;20200;-80
2022/03/26 11:10:12;;;;;;;6.40;5.30;;;;;;;;;;6188174;23;20181;-80
2022/03/26 11:12:45;;;;;;;9.30;7.97;;;;;;;;;;6188494;23;20252;-80
2022/03/26 11:15:16;;;;;;;10.87;7.80;;;;;;;;;;6188415;23;20183;-80
2022/03/26 11:17:50;;;;;;;11.70;6.80;;;;;;;;;;6188704;23;20179;-80
2022/03/26 11:20:25;;;;;;;22.33;8.47;;;;;;;;;;6188390;23;20182;-80
2022/03/26 11:23:00;;;;;;;16.70;9.80;;;;;;;;;;6188437;23;20177;-80
2022/03/26 11:25:46;;;;;;;11.50;8.00;;;;;;;;;;6188469;23;20178;-80
2022/03/26 11:28:23;;;;;;;18.97;9.13;;;;;;;;;;6187732;23;20186;-80
2022/03/26 11:30:55;;;;;;;11.23;10.20;;;;;;;;;;6214918;23;20194;-80
2022/03/26 11:33:23;;;;;;;15.60;7.90;;;;;;;;;;6214362;23;20169;-80
2022/03/26 11:35:53;;;;;;;15.90;7.90;;;;;;;;;;6214785;23;20180;-80
2022/03/26 11:38:23;;;;;;;10.57;7.90;;;;;;;;;;6188086;23;20185;-80
2022/03/26 11:40:53;;;;;;;10.00;7.37;;;;;;;;;;6213684;23;20183;-80
2022/03/26 11:43:43;;;;;;;4.30;3.90;;;;;;;;;;6187913;23;20171;-80
2022/03/26 11:51:52;;;;;;;10.87;6.77;;;;;;;;;;6216686;23;20190;-80
2022/03/26 11:54:20;;;;;;;24.23;12.50;;;;;;;;;;6216105;23;20185;-80
2022/03/26 11:56:49;;;;;;;34.93;19.43;;;;;;;;;;6190302;23;20174;-81
2022/03/26 11:59:28;;;;;;;24.63;12.70;;;;;;;;;;6214811;23;20174;-80
2022/03/26 12:02:16;;;;;;;27.07;13.33;;;;;;;;;;6190200;23;20174;-80
2022/03/26 12:04:49;;;;;;;16.07;10.33;;;;;;;;;;6189895;23;20194;-80
2022/03/26 12:07:17;;;;;;;17.27;11.17;;;;;;;;;;6216259;23;20171;-80
2022/03/26 12:09:46;;;;;;;28.90;14.50;;;;;;;;;;6216657;23;20174;-79
2022/03/26 12:12:19;;;;;;;11.63;7.67;;;;;;;;;;6189758;23;20190;-80
2022/03/26 12:15:07;;;;;;;20.57;11.77;;;;;;;;;;6190116;23;20265;-80
2022/03/26 12:17:46;;;;;;;26.87;14.07;;;;;;;;;;6216368;23;20173;-80
2022/03/26 12:20:28;;;;;;;28.17;13.93;;;;;;;;;;6190049;23;20171;-80
2022/03/26 12:23:07;;;;;;;12.73;8.70;;;;;;;;;;6215044;23;20167;-80
2022/03/26 12:25:37;;;;;;;22.53;11.03;;;;;;;;;;6189656;23;20179;-80
2022/03/26 12:28:06;;;;;;;39.37;21.13;;;;;;;;;;6216404;23;20166;-80
2022/03/26 12:30:34;;;;;;;20.93;12.53;;;;;;;;;;6215920;23;20175;-80
2022/03/26 12:33:10;;;;;;;27.20;11.13;;;;;;;;;;6189752;23;20202;-80
2022/03/26 12:35:38;;;;;;;17.63;10.70;;;;;;;;;;6216157;23;20168;-80
2022/03/26 12:38:08;;;;;;;16.93;9.07;;;;;;;;;;6189642;23;20186;-80
2022/03/26 12:40:38;;;;;;;19.57;9.87;;;;;;;;;;6189805;23;20186;-80
2022/03/26 12:43:09;;;;;;;21.73;11.40;;;;;;;;;;6190006;23;20170;-80
2022/03/26 12:45:37;;;;;;;18.87;9.23;;;;;;;;;;6216338;23;20183;-80
2022/03/26 12:48:11;;;;;;;29.17;13.30;;;;;;;;;;6189034;23;20180;-80
2022/03/26 12:50:40;;;;;;;31.47;17.27;;;;;;;;;;6214510;23;20198;-80
2022/03/26 12:53:09;;;;;;;24.83;12.90;;;;;;;;;;6214609;23;20195;-80
2022/03/26 12:55:38;;;;;;;25.37;11.93;;;;;;;;;;6189227;23;20225;-80
2022/03/26 13:01:06;;;;;;;19.57;13.03;;;;;;;;;;6189664;23;20182;-80
2022/03/26 13:03:37;;;;;;;19.00;12.30;;;;;;;;;;6215597;23;20213;-80
2022/03/26 13:06:06;;;;;;;24.07;13.27;;;;;;;;;;6189906;23;20183;-80
2022/03/26 13:08:39;;;;;;;26.43;12.77;;;;;;;;;;6189075;23;20222;-80
2022/03/26 13:11:08;;;;;;;28.83;13.60;;;;;;;;;;6214196;23;20179;-80
2022/03/26 13:13:43;;;;;;;28.53;15.40;;;;;;;;;;6214336;23;20205;-80
2022/03/26 13:16:14;;;;;;;24.30;13.40;;;;;;;;;;6189070;23;20253;-80
2022/03/26 13:18:45;;;;;;;23.10;12.27;;;;;;;;;;6189460;23;20229;-80
2022/03/26 13:21:14;;;;;;;22.93;12.60;;;;;;;;;;6215917;23;20170;-80
2022/03/26 13:23:52;;;;;;;26.80;14.13;;;;;;;;;;6215535;23;20167;-80
2022/03/26 13:26:21;;;;;;;25.47;13.00;;;;;;;;;;6214268;23;20185;-80
2022/03/26 13:28:49;;;;;;;17.80;11.57;;;;;;;;;;6214072;23;20232;-80
2022/03/26 13:31:19;;;;;;;15.60;9.50;;;;;;;;;;6214195;23;20195;-80
2022/03/26 13:33:49;;;;;;;24.80;15.17;;;;;;;;;;6188839;23;20229;-80
2022/03/26 13:36:27;;;;;;;18.77;11.83;;;;;;;;;;6189269;23;20177;-80
2022/03/26 13:38:55;;;;;;;16.53;10.30;;;;;;;;;;6215270;23;20181;-80
2022/03/26 13:41:24;;;;;;;17.43;10.83;;;;;;;;;;6215535;23;20180;-80
2022/03/26 13:43:53;;;;;;;25.17;13.17;;;;;;;;;;6215517;23;20174;-80
2022/03/26 13:46:22;;;;;;;21.53;9.70;;;;;;;;;;6189356;23;20186;-80
2022/03/26 13:48:53;;;;;;;11.17;7.43;;;;;;;;;;6189230;23;20178;-80
2022/03/26 13:51:28;;;;;;;18.27;10.73;;;;;;;;;;6188592;23;20211;-80
2022/03/26 13:53:57;;;;;;;17.17;10.40;;;;;;;;;;6215106;23;20188;-80
2022/03/26 13:56:27;;;;;;;7.90;5.33;;;;;;;;;;6214237;23;20178;-80
2022/03/26 13:58:55;;;;;;;20.33;11.70;;;;;;;;;;6213731;23;20233;-80
2022/03/26 14:01:24;;;;;;;13.47;8.50;;;;;;;;;;6189134;23;20174;-80
2022/03/26 14:03:57;;;;;;;22.30;15.47;;;;;;;;;;6188716;23;20245;-81
2022/03/26 14:06:26;;;;;;;18.20;10.40;;;;;;;;;;6215271;23;20254;-80
2022/03/26 14:08:54;;;;;;;8.87;8.00;;;;;;;;;;6188415;23;20244;-80
2022/03/26 14:11:22;;;;;;;17.30;10.03;;;;;;;;;;6188956;23;20189;-80
2022/03/26 14:13:51;;;;;;;23.87;11.90;;;;;;;;;;6188848;23;20200;-80
2022/03/26 14:16:19;;;;;;;14.73;9.93;;;;;;;;;;6188688;23;20175;-80
2022/03/26 14:18:48;;;;;;;16.37;10.97;;;;;;;;;;6188774;23;20174;-80
2022/03/26 14:21:18;;;;;;;23.80;12.37;;;;;;;;;;6213675;23;20182;-80
2022/03/26 14:23:47;;;;;;;14.90;10.13;;;;;;;;;;6188332;23;20253;-79
2022/03/26 14:26:15;;;;;;;12.27;10.23;;;;;;;;;;6215185;23;20184;-80
2022/03/26 14:28:44;;;;;;;11.93;10.77;;;;;;;;;;6189118;23;20237;-80
2022/03/26 14:31:12;;;;;;;12.73;9.87;;;;;;;;;;6188586;23;20182;-80
2022/03/26 14:33:40;;;;;;;12.17;8.47;;;;;;;;;;6188901;23;20198;-80
2022/03/26 14:36:09;;;;;;;11.50;8.60;;;;;;;;;;6188536;23;20175;-80
2022/03/26 14:38:38;;;;;;;10.90;7.57;;;;;;;;;;6188754;23;20201;-80
2022/03/26 14:41:07;;;;;;;11.30;7.97;;;;;;;;;;6188756;23;20178;-80
2022/03/26 14:43:36;;;;;;;8.77;7.10;;;;;;;;;;6188536;23;20174;-81
2022/03/26 14:46:04;;;;;;;5.60;4.97;;;;;;;;;;6215307;23;20176;-80
2022/03/26 14:48:32;;;;;;;6.57;5.17;;;;;;;;;;6188918;23;20182;-80
2022/03/26 14:51:01;;;;;;;5.00;3.53;;;;;;;;;;6188453;23;20198;-80
2022/03/26 14:53:29;;;;;;;6.90;5.20;;;;;;;;;;6188281;23;20194;-80